Time;durP1;ratioP1;P1;durP2;ratioP2;P2;SDS_P1;SDS_P2;PMS_P1;PMS_P2;Temp;Humidity;BMP_temperature;BMP_pressure;BME280_temperature;BME280_humidity;BME280_pressure;Samples;Min_cycle;Max_cycle;Signal;HPM_P1;HPM_P2
2024/01/25 00:02:21;;;;;;;9.77;2.70;;;6.60;59.10;;;;;;4886567;28;115096;-80
2024/01/25 00:04:48;;;;;;;12.20;2.80;;;6.60;59.00;;;;;;4871848;28;115121;-80
2024/01/25 00:07:16;;;;;;;10.85;1.85;;;6.60;58.90;;;;;;4872334;28;114418;-81
2024/01/25 00:09:43;;;;;;;7.75;2.50;;;6.60;58.90;;;;;;4871412;28;114363;-81
2024/01/25 00:12:11;;;;;;;11.38;2.30;;;6.60;58.70;;;;;;4854097;28;115681;-81
2024/01/25 00:14:41;;;;;;;6.90;1.95;;;6.60;58.70;;;;;;4870835;28;117233;-81
2024/01/25 00:17:11;;;;;;;7.55;2.05;;;6.60;58.40;;;;;;4872426;28;114281;-81
2024/01/25 00:19:38;;;;;;;14.07;2.80;;;6.60;58.50;;;;;;4865474;28;114700;-81
2024/01/25 00:22:06;;;;;;;8.68;2.00;;;6.70;58.40;;;;;;4860838;28;115054;-80
2024/01/25 00:24:33;;;;;;;8.32;2.08;;;6.60;58.10;;;;;;4858733;28;114821;-79
2024/01/25 00:27:01;;;;;;;7.47;2.55;;;6.60;58.10;;;;;;4862271;28;114479;-80
2024/01/25 00:29:30;;;;;;;10.70;2.53;;;6.60;58.00;;;;;;4862748;28;114277;-79
2024/01/25 00:31:58;;;;;;;6.82;1.95;;;6.70;57.80;;;;;;4848541;28;115486;-79
2024/01/25 00:34:25;;;;;;;9.18;1.98;;;6.70;57.70;;;;;;4861487;28;114704;-79
2024/01/25 00:36:54;;;;;;;10.20;2.03;;;6.70;57.60;;;;;;4859747;28;115071;-80
2024/01/25 00:39:22;;;;;;;9.23;2.08;;;6.70;57.70;;;;;;4861739;28;115592;-79
2024/01/25 00:41:51;;;;;;;12.18;4.07;;;6.70;57.60;;;;;;4858575;28;115023;-80
2024/01/25 00:44:22;;;;;;;10.48;2.40;;;6.60;57.50;;;;;;4875922;28;114843;-80
2024/01/25 00:46:52;;;;;;;9.15;2.08;;;6.70;57.50;;;;;;4862199;28;114454;-80
2024/01/25 00:49:20;;;;;;;9.73;3.00;;;6.70;57.60;;;;;;4876025;28;114398;-80
2024/01/25 00:51:51;;;;;;;8.07;1.77;;;6.70;57.70;;;;;;4859563;28;115730;-80
2024/01/25 00:54:20;;;;;;;10.15;2.45;;;6.70;57.80;;;;;;4858675;28;115455;-80
2024/01/25 00:56:50;;;;;;;7.93;2.25;;;6.60;57.90;;;;;;4859940;28;114420;-80
2024/01/25 00:59:19;;;;;;;9.02;1.92;;;6.60;58.00;;;;;;4876010;28;114720;-80
2024/01/25 01:01:47;;;;;;;9.10;2.35;;;6.60;58.20;;;;;;4857070;28;115172;-80
2024/01/25 01:04:15;;;;;;;9.20;1.85;;;6.60;58.30;;;;;;4871995;28;115056;-80
2024/01/25 01:06:44;;;;;;;10.65;2.78;;;6.50;58.40;;;;;;4871625;28;114291;-80
2024/01/25 01:09:11;;;;;;;7.35;2.95;;;6.50;58.50;;;;;;4870745;28;114331;-80
2024/01/25 01:11:39;;;;;;;12.88;2.95;;;6.50;58.70;;;;;;4870322;28;115770;-80
2024/01/25 01:14:06;;;;;;;9.27;2.20;;;6.50;58.80;;;;;;4869590;28;114763;-80
2024/01/25 01:16:35;;;;;;;7.68;2.40;;;6.50;58.90;;;;;;4870789;28;114326;-80
2024/01/25 01:19:06;;;;;;;7.88;2.10;;;6.50;58.90;;;;;;4871993;28;114395;-80
2024/01/25 01:21:35;;;;;;;8.68;2.53;;;6.50;58.90;;;;;;4869587;28;115030;-80
2024/01/25 01:24:03;;;;;;;11.02;2.20;;;6.50;58.90;;;;;;4869623;28;114647;-81
2024/01/25 01:26:30;;;;;;;11.75;2.30;;;6.40;58.90;;;;;;4871249;28;114363;-80
2024/01/25 01:28:57;;;;;;;10.32;2.70;;;6.50;58.90;;;;;;4871662;28;115014;-80
2024/01/25 01:31:25;;;;;;;7.70;2.40;;;6.40;58.90;;;;;;4838465;28;115124;-80
2024/01/25 01:33:55;;;;;;;10.50;1.95;;;6.40;58.90;;;;;;4853669;28;115234;-80
2024/01/25 01:36:22;;;;;;;11.23;2.10;;;6.40;58.90;;;;;;4838458;28;114596;-80
2024/01/25 01:38:49;;;;;;;5.43;2.00;;;6.40;58.90;;;;;;4885897;28;114438;-80
2024/01/25 01:41:19;;;;;;;8.88;2.33;;;6.40;59.00;;;;;;4875274;28;115391;-79
2024/01/25 01:43:46;;;;;;;7.80;1.90;;;6.40;59.00;;;;;;4877902;28;116295;-79
2024/01/25 01:46:26;;;;;;;7.40;2.03;;;6.40;59.10;;;;;;4869876;28;114631;-80
2024/01/25 01:48:54;;;;;;;10.05;2.42;;;6.40;59.00;;;;;;4884692;28;114347;-80
2024/01/25 01:51:25;;;;;;;8.07;2.28;;;6.30;59.10;;;;;;4884306;28;115229;-80
2024/01/25 01:53:53;;;;;;;8.88;2.67;;;6.30;59.10;;;;;;4869334;28;115211;-80
2024/01/25 01:56:20;;;;;;;11.18;2.03;;;6.30;59.10;;;;;;4854478;28;114327;-80
2024/01/25 01:58:51;;;;;;;9.38;2.03;;;6.30;59.10;;;;;;4871196;28;114521;-80
2024/01/25 02:01:18;;;;;;;10.07;2.40;;;6.30;59.00;;;;;;4868216;28;115031;-80
2024/01/25 02:03:46;;;;;;;7.50;2.67;;;6.30;59.00;;;;;;4884511;28;115180;-80
2024/01/25 02:06:14;;;;;;;12.00;3.17;;;6.40;58.90;;;;;;4871080;28;114304;-80
2024/01/25 02:08:41;;;;;;;5.80;2.10;;;6.30;58.90;;;;;;4871386;28;114181;-80
2024/01/25 02:11:12;;;;;;;8.52;1.98;;;6.30;58.80;;;;;;4869992;28;114997;-80
2024/01/25 02:13:39;;;;;;;8.48;2.42;;;6.30;58.80;;;;;;4884448;28;114667;-81
2024/01/25 02:16:10;;;;;;;11.85;2.35;;;6.30;58.80;;;;;;4885119;28;114463;-80
2024/01/25 02:18:37;;;;;;;9.07;2.03;;;6.40;58.80;;;;;;4870917;28;114221;-80
2024/01/25 02:21:05;;;;;;;11.25;2.50;;;6.40;58.80;;;;;;4868607;28;115407;-80
2024/01/25 02:23:32;;;;;;;13.88;2.45;;;6.30;58.80;;;;;;4884435;28;115903;-80
2024/01/25 02:25:59;;;;;;;12.40;2.67;;;6.30;58.70;;;;;;4869325;28;114539;-79
2024/01/25 02:28:26;;;;;;;8.98;2.13;;;6.30;58.70;;;;;;4853880;28;114366;-79
2024/01/25 02:30:54;;;;;;;8.98;1.70;;;6.30;58.70;;;;;;4868428;28;115628;-79
2024/01/25 02:33:24;;;;;;;8.88;1.95;;;6.30;58.70;;;;;;4869369;28;114542;-79
2024/01/25 02:35:52;;;;;;;7.53;2.05;;;6.30;58.70;;;;;;4869026;28;114471;-79
2024/01/25 02:38:20;;;;;;;11.25;2.40;;;6.30;58.70;;;;;;4870491;28;114433;-79
2024/01/25 02:40:47;;;;;;;10.05;2.35;;;6.30;58.60;;;;;;4869458;28;115207;-79
2024/01/25 02:43:14;;;;;;;7.03;2.00;;;6.20;58.70;;;;;;4868604;28;114662;-79
2024/01/25 02:45:43;;;;;;;7.47;2.17;;;6.30;58.60;;;;;;4870539;28;114200;-80
2024/01/25 02:48:11;;;;;;;12.23;2.13;;;6.30;58.70;;;;;;4869371;28;114392;-80
2024/01/25 02:50:38;;;;;;;9.55;1.80;;;6.20;58.70;;;;;;4870152;28;114412;-80
2024/01/25 02:53:06;;;;;;;9.57;2.08;;;6.20;58.60;;;;;;4868468;28;115715;-79
2024/01/25 02:55:33;;;;;;;7.82;2.40;;;6.20;58.60;;;;;;4884461;28;114602;-80
2024/01/25 02:58:00;;;;;;;8.30;2.22;;;6.30;58.70;;;;;;4870200;28;114794;-80
2024/01/25 03:00:28;;;;;;;12.63;2.42;;;6.20;58.70;;;;;;4868455;28;115604;-80
2024/01/25 03:02:55;;;;;;;7.05;2.20;;;6.20;58.70;;;;;;4868502;28;116116;-80
2024/01/25 03:05:25;;;;;;;9.40;2.15;;;6.20;58.70;;;;;;4854283;28;114581;-80
2024/01/25 03:07:53;;;;;;;9.27;1.90;;;6.30;58.70;;;;;;4868164;28;114575;-80
2024/01/25 03:10:20;;;;;;;15.98;2.42;;;6.30;58.70;;;;;;4852461;28;115758;-79
2024/01/25 03:12:48;;;;;;;11.13;2.58;;;6.20;58.70;;;;;;4869322;28;115072;-80
2024/01/25 03:15:15;;;;;;;8.73;2.22;;;6.20;58.80;;;;;;4868503;28;114463;-79
2024/01/25 03:17:43;;;;;;;11.65;2.45;;;6.20;58.70;;;;;;4868638;28;114586;-79
2024/01/25 03:20:10;;;;;;;11.00;2.78;;;6.20;58.60;;;;;;4867950;28;115518;-79
2024/01/25 03:22:38;;;;;;;9.55;2.55;;;6.20;58.70;;;;;;4883084;28;115183;-79
2024/01/25 03:25:06;;;;;;;12.00;2.78;;;6.20;58.70;;;;;;4869997;28;114463;-79
2024/01/25 03:27:34;;;;;;;7.13;2.30;;;6.20;58.70;;;;;;4877309;28;114118;-79
2024/01/25 03:30:01;;;;;;;11.38;2.63;;;6.20;58.70;;;;;;4889302;28;114167;-80
2024/01/25 03:32:29;;;;;;;8.60;2.42;;;6.20;58.70;;;;;;4868624;28;114945;-80
2024/01/25 03:34:58;;;;;;;7.72;2.13;;;6.20;58.80;;;;;;4869594;28;114458;-80
2024/01/25 03:37:26;;;;;;;10.43;2.15;;;6.20;58.80;;;;;;4869487;28;114415;-80
2024/01/25 03:39:53;;;;;;;9.27;1.90;;;6.20;58.80;;;;;;4868367;28;115728;-79
2024/01/25 03:42:21;;;;;;;11.90;3.25;;;6.20;58.90;;;;;;4866513;28;116780;-79
2024/01/25 03:44:48;;;;;;;7.43;2.20;;;6.20;58.80;;;;;;4868430;28;114334;-82
2024/01/25 03:47:16;;;;;;;9.57;2.35;;;6.20;58.80;;;;;;4867711;28;114672;-80
2024/01/25 03:49:44;;;;;;;9.20;2.28;;;6.20;58.80;;;;;;4867180;28;117075;-81
2024/01/25 03:52:12;;;;;;;11.13;2.45;;;6.20;58.80;;;;;;4867647;28;114686;-81
2024/01/25 03:54:39;;;;;;;9.63;2.58;;;6.20;58.80;;;;;;4852953;28;114627;-81
2024/01/25 03:57:07;;;;;;;9.70;2.17;;;6.20;58.80;;;;;;4853372;28;114353;-81
2024/01/25 03:59:34;;;;;;;10.23;2.60;;;6.30;58.70;;;;;;4868837;28;115388;-80
2024/01/25 04:02:01;;;;;;;8.75;2.10;;;6.30;58.70;;;;;;4869209;28;114740;-80
2024/01/25 04:04:29;;;;;;;11.68;2.40;;;6.30;58.60;;;;;;4869365;28;114224;-80
2024/01/25 04:06:56;;;;;;;12.77;2.42;;;6.20;58.50;;;;;;4867409;28;114531;-80
2024/01/25 04:09:24;;;;;;;11.65;2.70;;;6.30;58.50;;;;;;4868086;28;115315;-80
2024/01/25 04:11:51;;;;;;;8.32;2.33;;;6.30;58.50;;;;;;4867731;28;114641;-80
2024/01/25 04:14:19;;;;;;;10.52;2.47;;;6.30;58.40;;;;;;4869383;28;114262;-80
2024/01/25 04:16:46;;;;;;;10.00;2.65;;;6.30;58.40;;;;;;4869368;28;114292;-81
2024/01/25 04:19:14;;;;;;;13.32;3.08;;;6.20;58.40;;;;;;4867174;28;115538;-80
2024/01/25 04:21:41;;;;;;;14.65;2.80;;;6.20;58.40;;;;;;4868670;28;114668;-80
2024/01/25 04:24:09;;;;;;;12.60;2.40;;;6.20;58.50;;;;;;4869363;28;114501;-80
2024/01/25 04:26:36;;;;;;;9.48;2.10;;;6.30;58.40;;;;;;4850733;28;114375;-80
2024/01/25 04:29:03;;;;;;;11.68;2.58;;;6.20;58.30;;;;;;4832030;28;115070;-80
2024/01/25 04:31:30;;;;;;;11.95;2.75;;;6.20;58.30;;;;;;4832682;29;114715;-80
2024/01/25 04:33:58;;;;;;;6.22;2.17;;;6.20;58.30;;;;;;4833573;29;114361;-80
2024/01/25 04:36:25;;;;;;;10.93;2.40;;;6.20;58.30;;;;;;4868024;28;114677;-80
2024/01/25 04:38:53;;;;;;;11.82;3.03;;;6.20;58.30;;;;;;4871761;28;115393;-80
2024/01/25 04:41:20;;;;;;;11.82;2.78;;;6.20;58.30;;;;;;4871587;28;114692;-80
2024/01/25 04:43:47;;;;;;;12.50;2.45;;;6.20;58.20;;;;;;4871989;28;114594;-80
2024/01/25 04:46:15;;;;;;;14.63;3.95;;;6.20;58.20;;;;;;4872237;28;114387;-80
2024/01/25 04:48:46;;;;;;;10.02;2.50;;;6.20;58.20;;;;;;4870896;28;115103;-81
2024/01/25 04:51:17;;;;;;;13.05;2.80;;;6.20;58.30;;;;;;4869983;28;114701;-79
2024/01/25 04:53:44;;;;;;;14.50;3.38;;;6.20;58.30;;;;;;4885515;28;114341;-79
2024/01/25 04:56:12;;;;;;;13.45;2.95;;;6.20;58.40;;;;;;4886557;28;114499;-79
2024/01/25 04:58:39;;;;;;;12.93;2.70;;;6.20;58.30;;;;;;4869916;28;114989;-79
2024/01/25 05:01:07;;;;;;;7.65;2.00;;;6.20;58.20;;;;;;4870845;28;114551;-80
2024/01/25 05:03:34;;;;;;;11.60;2.78;;;6.20;58.20;;;;;;4870810;28;114537;-80
2024/01/25 05:06:02;;;;;;;10.30;2.35;;;6.20;58.10;;;;;;4871375;28;114236;-80
2024/01/25 05:08:32;;;;;;;9.82;2.78;;;6.20;58.00;;;;;;4863388;28;115160;-81
2024/01/25 05:11:00;;;;;;;9.45;2.40;;;6.20;57.90;;;;;;4858452;28;114685;-81
2024/01/25 05:13:28;;;;;;;9.10;2.40;;;6.20;57.90;;;;;;4860617;29;114558;-80
2024/01/25 05:15:59;;;;;;;9.75;2.45;;;6.20;57.80;;;;;;4869573;28;114398;-80
2024/01/25 05:18:30;;;;;;;13.32;2.75;;;6.20;57.80;;;;;;4854454;28;115345;-81
2024/01/25 05:20:58;;;;;;;13.77;2.35;;;6.20;57.70;;;;;;4871235;28;114826;-81
2024/01/25 05:23:26;;;;;;;9.30;2.28;;;6.20;57.80;;;;;;4869309;28;114434;-81
2024/01/25 05:25:54;;;;;;;10.40;3.05;;;6.20;57.80;;;;;;4839666;28;115014;-80
2024/01/25 05:28:24;;;;;;;11.05;2.25;;;6.20;57.70;;;;;;4869441;28;119157;-80
2024/01/25 05:30:52;;;;;;;10.55;2.45;;;6.20;57.60;;;;;;4870777;28;114721;-79
2024/01/25 05:33:19;;;;;;;14.30;2.45;;;6.20;57.60;;;;;;4872568;28;114714;-80
2024/01/25 05:35:47;;;;;;;10.85;2.35;;;6.20;57.40;;;;;;4872337;28;114514;-80
2024/01/25 05:38:17;;;;;;;11.75;2.45;;;6.20;57.50;;;;;;4870674;28;115287;-80
2024/01/25 05:40:44;;;;;;;7.82;2.25;;;6.20;57.30;;;;;;4863337;28;115432;-80
2024/01/25 05:43:11;;;;;;;10.40;2.40;;;6.20;57.40;;;;;;4850394;29;114469;-80
2024/01/25 05:45:39;;;;;;;14.68;2.53;;;6.20;57.40;;;;;;4860427;28;115576;-80
2024/01/25 05:48:06;;;;;;;11.70;2.58;;;6.20;57.40;;;;;;4855803;28;114458;-81
2024/01/25 05:50:34;;;;;;;11.52;3.22;;;6.20;57.40;;;;;;4870342;28;114638;-81
2024/01/25 05:53:01;;;;;;;13.15;2.80;;;6.20;57.50;;;;;;4864842;28;114348;-80
2024/01/25 05:55:28;;;;;;;15.23;2.65;;;6.20;57.50;;;;;;4865293;28;114400;-80
2024/01/25 05:57:56;;;;;;;12.43;2.78;;;6.20;57.60;;;;;;4866987;28;115278;-80
2024/01/25 06:00:23;;;;;;;9.43;2.25;;;6.10;57.70;;;;;;4857648;28;116441;-80
2024/01/25 06:02:51;;;;;;;11.43;2.92;;;6.10;57.70;;;;;;4869286;28;114302;-80
2024/01/25 06:05:18;;;;;;;12.88;3.05;;;6.10;57.70;;;;;;4872090;28;114752;-80
2024/01/25 06:07:48;;;;;;;9.55;1.90;;;6.00;57.70;;;;;;4843044;28;116459;-79
2024/01/25 06:10:16;;;;;;;10.05;2.42;;;6.00;57.80;;;;;;4866099;28;114708;-82
2024/01/25 06:12:43;;;;;;;13.32;2.75;;;6.00;57.70;;;;;;4864819;28;114632;-78
2024/01/25 06:15:11;;;;;;;16.58;2.67;;;6.00;57.80;;;;;;4849309;28;114479;-80
2024/01/25 06:17:38;;;;;;;10.13;2.30;;;6.00;57.80;;;;;;4863480;28;115490;-80
2024/01/25 06:20:07;;;;;;;8.82;2.05;;;6.00;57.70;;;;;;4861272;28;115241;-82
2024/01/25 06:22:35;;;;;;;9.55;2.50;;;5.90;57.80;;;;;;4883646;28;114758;-81
2024/01/25 06:25:07;;;;;;;9.30;2.63;;;5.90;57.80;;;;;;4869692;28;114485;-81
2024/01/25 06:27:35;;;;;;;11.02;2.42;;;6.00;57.60;;;;;;4867030;28;118691;-80
2024/01/25 06:30:04;;;;;;;9.40;2.65;;;5.90;57.70;;;;;;4882221;28;116770;-81
2024/01/25 06:32:31;;;;;;;10.63;2.22;;;5.90;57.70;;;;;;4883869;28;114747;-81
2024/01/25 06:34:59;;;;;;;11.25;2.40;;;6.00;57.70;;;;;;4868443;28;114586;-82
2024/01/25 06:37:28;;;;;;;13.52;3.20;;;6.00;57.70;;;;;;4868167;28;115733;-81
2024/01/25 06:39:56;;;;;;;10.65;2.28;;;6.00;57.70;;;;;;4865949;28;115010;-81
2024/01/25 06:42:23;;;;;;;14.00;2.63;;;5.90;57.60;;;;;;4864674;28;114535;-81
2024/01/25 06:44:51;;;;;;;16.38;4.03;;;6.00;57.60;;;;;;4868697;28;114475;-80
2024/01/25 06:47:21;;;;;;;10.85;3.45;;;6.00;57.60;;;;;;4867099;28;116141;-81
2024/01/25 06:49:51;;;;;;;12.85;2.65;;;6.00;57.60;;;;;;4867592;28;115346;-82
2024/01/25 06:52:20;;;;;;;12.30;2.63;;;6.00;57.70;;;;;;4852380;28;114730;-80
2024/01/25 06:54:48;;;;;;;11.27;2.70;;;6.00;57.80;;;;;;4883268;28;114391;-81
2024/01/25 06:57:15;;;;;;;10.38;2.67;;;6.00;57.70;;;;;;4881367;28;116339;-82
2024/01/25 06:59:47;;;;;;;9.85;3.10;;;6.00;57.70;;;;;;4868248;28;115335;-80
2024/01/25 07:02:18;;;;;;;9.13;2.55;;;6.00;57.70;;;;;;4855665;28;114511;-82
2024/01/25 07:04:52;;;;;;;10.20;2.17;;;6.10;57.60;;;;;;4864842;28;114147;-83
2024/01/25 07:07:21;;;;;;;13.23;2.80;;;6.00;57.50;;;;;;4888802;28;115827;-83
2024/01/25 07:09:51;;;;;;;8.95;2.22;;;6.00;57.50;;;;;;4887655;28;114464;-82
2024/01/25 07:12:18;;;;;;;12.07;2.45;;;6.00;57.40;;;;;;4883380;28;114478;-82
2024/01/25 07:14:45;;;;;;;10.65;2.90;;;6.00;57.40;;;;;;4881175;28;114685;-81
2024/01/25 07:17:13;;;;;;;9.88;2.20;;;6.00;57.30;;;;;;4850560;28;118183;-81
2024/01/25 07:19:42;;;;;;;8.05;2.20;;;6.00;57.30;;;;;;4881855;28;115101;-81
2024/01/25 07:22:12;;;;;;;11.40;2.30;;;6.00;57.30;;;;;;4882520;28;114566;-80
2024/01/25 07:24:40;;;;;;;8.00;2.20;;;6.00;57.30;;;;;;4866166;28;114837;-81
2024/01/25 07:27:10;;;;;;;9.65;2.35;;;6.00;57.40;;;;;;4882365;28;116229;-80
2024/01/25 07:29:38;;;;;;;9.13;2.42;;;6.00;57.40;;;;;;4866298;28;114698;-81
2024/01/25 07:32:09;;;;;;;15.75;2.55;;;6.00;57.50;;;;;;4865251;28;114768;-79
2024/01/25 07:34:36;;;;;;;9.95;2.42;;;5.90;57.60;;;;;;4878249;28;114669;-80
2024/01/25 07:37:04;;;;;;;11.82;2.65;;;5.90;57.70;;;;;;4864934;28;116490;-81
2024/01/25 07:39:34;;;;;;;14.10;3.53;;;6.00;57.80;;;;;;4849589;28;117237;-80
2024/01/25 07:42:01;;;;;;;8.57;2.80;;;6.00;57.90;;;;;;4866118;28;114994;-80
2024/01/25 07:44:29;;;;;;;11.43;3.83;;;6.00;57.90;;;;;;4882204;28;114406;-80
2024/01/25 07:46:56;;;;;;;11.65;2.85;;;5.90;58.10;;;;;;4857732;28;115102;-81
2024/01/25 07:49:24;;;;;;;11.57;2.80;;;5.90;58.20;;;;;;4841797;28;116421;-82
2024/01/25 07:51:51;;;;;;;11.48;2.75;;;5.90;58.30;;;;;;4841572;28;114526;-81
2024/01/25 07:54:19;;;;;;;9.50;2.63;;;5.90;58.40;;;;;;4857938;28;114422;-81
2024/01/25 07:56:49;;;;;;;12.25;3.17;;;5.90;58.40;;;;;;4863979;28;115096;-81
2024/01/25 07:59:16;;;;;;;11.50;2.50;;;5.90;58.30;;;;;;4849832;28;118984;-79
2024/01/25 08:01:44;;;;;;;10.18;3.60;;;5.90;58.50;;;;;;4882548;28;114621;-82
2024/01/25 08:04:11;;;;;;;11.82;2.83;;;5.90;58.50;;;;;;4882870;28;114640;-80
2024/01/25 08:06:39;;;;;;;11.32;3.00;;;5.90;58.60;;;;;;4865893;28;115067;-80
2024/01/25 08:09:08;;;;;;;15.55;3.58;;;5.90;58.60;;;;;;4864434;28;114798;-81
2024/01/25 08:11:36;;;;;;;10.18;2.70;;;5.80;58.70;;;;;;4869019;28;114678;-81
2024/01/25 08:14:03;;;;;;;10.32;2.60;;;5.90;58.80;;;;;;4853847;28;114580;-80
2024/01/25 08:16:35;;;;;;;12.05;2.72;;;5.90;58.90;;;;;;4869102;28;115274;-80
2024/01/25 08:19:02;;;;;;;8.60;3.05;;;5.90;58.80;;;;;;4884314;28;116343;-81
2024/01/25 08:21:30;;;;;;;12.57;3.40;;;5.80;58.90;;;;;;4869914;28;115777;-81
2024/01/25 08:23:59;;;;;;;12.35;3.50;;;5.80;58.90;;;;;;4869596;28;114566;-81
2024/01/25 08:26:26;;;;;;;17.70;3.22;;;5.90;59.10;;;;;;4867238;28;116470;-80
2024/01/25 08:28:54;;;;;;;12.02;2.70;;;5.90;59.10;;;;;;4884811;28;114915;-81
2024/01/25 08:31:21;;;;;;;12.27;3.70;;;5.90;59.10;;;;;;4870658;28;114688;-82
2024/01/25 08:33:49;;;;;;;11.32;3.40;;;5.90;59.20;;;;;;4868582;28;114673;-80
2024/01/25 08:36:20;;;;;;;13.05;4.88;;;5.90;59.20;;;;;;4852470;28;115916;-80
2024/01/25 08:38:47;;;;;;;11.90;3.53;;;5.90;59.30;;;;;;4881756;28;115930;-80
2024/01/25 08:41:16;;;;;;;10.05;3.63;;;5.90;59.40;;;;;;4869205;28;114343;-81
2024/01/25 08:44:03;;;;;;;8.35;2.55;;;6.00;59.40;;;;;;4870113;28;114736;-82
2024/01/25 08:46:43;;;;;;;9.93;3.10;;;6.00;59.50;;;;;;4869272;28;115088;-81
2024/01/25 08:49:12;;;;;;;16.98;4.00;;;6.00;59.60;;;;;;4869347;28;114590;-81
2024/01/25 08:51:40;;;;;;;14.77;3.28;;;5.90;59.80;;;;;;4869792;28;114520;-80
2024/01/25 08:54:08;;;;;;;11.90;3.78;;;5.90;60.10;;;;;;4869011;28;114452;-81
2024/01/25 08:56:39;;;;;;;13.60;3.78;;;5.90;60.20;;;;;;4885885;28;117147;-81
2024/01/25 08:59:07;;;;;;;11.05;3.70;;;5.90;60.40;;;;;;4889533;28;117458;-79
2024/01/25 09:01:34;;;;;;;10.82;3.50;;;5.90;60.60;;;;;;4859536;28;114648;-82
2024/01/25 09:04:02;;;;;;;9.52;2.95;;;5.80;60.70;;;;;;4864142;28;114693;-81
2024/01/25 09:06:30;;;;;;;11.32;3.70;;;5.90;60.60;;;;;;4863535;28;115860;-81
2024/01/25 09:09:03;;;;;;;10.48;3.40;;;5.80;60.60;;;;;;4883368;28;114735;-81
2024/01/25 09:11:33;;;;;;;12.65;3.65;;;5.90;60.50;;;;;;4870147;28;114415;-81
2024/01/25 09:14:00;;;;;;;12.93;3.78;;;5.90;60.50;;;;;;4870250;28;114342;-81
2024/01/25 09:16:28;;;;;;;8.98;3.25;;;5.90;60.40;;;;;;4866150;28;116454;-80
2024/01/25 09:18:55;;;;;;;12.57;3.08;;;5.90;60.30;;;;;;4869454;28;114819;-81
2024/01/25 09:21:24;;;;;;;15.60;4.40;;;5.90;60.10;;;;;;4852879;28;114828;-82
2024/01/25 09:23:51;;;;;;;11.68;3.75;;;6.00;59.70;;;;;;4868626;28;114500;-80
2024/01/25 09:26:19;;;;;;;14.82;4.10;;;5.90;59.50;;;;;;4836262;28;117046;-80
2024/01/25 09:28:46;;;;;;;13.80;4.10;;;5.90;59.40;;;;;;4869345;28;116685;-81
2024/01/25 09:31:14;;;;;;;9.80;3.25;;;5.90;59.20;;;;;;4868477;28;114684;-81
2024/01/25 09:33:42;;;;;;;9.30;3.55;;;6.00;59.00;;;;;;4870089;28;114852;-79
2024/01/25 09:36:09;;;;;;;8.73;2.92;;;6.00;58.90;;;;;;4883205;28;116820;-80
2024/01/25 09:38:37;;;;;;;10.85;2.97;;;6.00;58.80;;;;;;4883785;28;114755;-80
2024/01/25 09:41:04;;;;;;;12.63;4.28;;;6.10;58.60;;;;;;4868004;28;114556;-80
2024/01/25 09:43:32;;;;;;;10.75;3.00;;;6.10;58.50;;;;;;4867444;28;114577;-81
2024/01/25 09:46:02;;;;;;;12.15;3.03;;;6.10;58.30;;;;;;4877409;28;118435;-80
2024/01/25 09:48:30;;;;;;;8.43;2.90;;;6.00;58.20;;;;;;4849674;28;117278;-83
2024/01/25 09:51:00;;;;;;;8.77;3.03;;;6.10;58.10;;;;;;4867418;28;114697;-81
2024/01/25 09:53:27;;;;;;;11.32;3.22;;;6.10;58.10;;;;;;4867040;28;114571;-82
2024/01/25 09:56:09;;;;;;;10.57;2.95;;;6.10;58.00;;;;;;4867735;28;115049;-81
2024/01/25 09:58:39;;;;;;;10.27;3.60;;;6.10;57.70;;;;;;4866439;28;114837;-81
2024/01/25 10:01:09;;;;;;;8.52;2.67;;;6.10;57.80;;;;;;4884151;28;114452;-81
2024/01/25 10:03:37;;;;;;;11.10;2.70;;;6.10;57.60;;;;;;4869365;28;114344;-80
2024/01/25 10:06:06;;;;;;;9.82;3.15;;;6.10;57.50;;;;;;4868756;28;115105;-79
2024/01/25 10:08:36;;;;;;;12.57;2.58;;;6.20;57.30;;;;;;4868453;28;115180;-82
2024/01/25 10:11:05;;;;;;;10.32;2.58;;;6.10;57.00;;;;;;4866609;28;114565;-81
2024/01/25 10:13:33;;;;;;;11.32;2.67;;;6.20;56.80;;;;;;4848780;28;114613;-82
2024/01/25 10:16:01;;;;;;;8.43;2.60;;;6.20;56.80;;;;;;4862606;28;115094;-81
2024/01/25 10:18:28;;;;;;;12.95;3.15;;;6.20;56.60;;;;;;4840199;28;120517;-81
2024/01/25 10:20:57;;;;;;;9.07;2.70;;;6.20;56.40;;;;;;4864822;28;114928;-81
2024/01/25 10:23:25;;;;;;;9.13;2.80;;;6.20;56.20;;;;;;4875508;28;114911;-82
2024/01/25 10:25:56;;;;;;;10.15;2.97;;;6.20;56.10;;;;;;4864356;28;117120;-82
2024/01/25 10:28:25;;;;;;;13.25;3.40;;;6.20;56.10;;;;;;4863012;28;115534;-81
2024/01/25 10:31:09;;;;;;;13.45;3.33;;;6.20;55.90;;;;;;4845711;28;114627;-81
2024/01/25 10:33:38;;;;;;;17.02;3.53;;;6.20;55.70;;;;;;4849048;28;114488;-81
2024/01/25 10:36:12;;;;;;;10.93;3.47;;;6.30;56.00;;;;;;4882240;28;115719;-82
2024/01/25 10:38:39;;;;;;;10.02;2.42;;;6.30;55.90;;;;;;4851008;28;115775;-82
2024/01/25 10:41:07;;;;;;;10.35;2.88;;;6.30;55.50;;;;;;4851066;28;114518;-81
2024/01/25 10:43:38;;;;;;;8.77;2.50;;;6.20;54.90;;;;;;4866785;28;114647;-82
2024/01/25 10:46:05;;;;;;;10.57;1.98;;;6.30;54.60;;;;;;4864915;28;115080;-82
2024/01/25 10:48:33;;;;;;;10.35;2.80;;;6.20;54.20;;;;;;4882547;28;114587;-81
2024/01/25 10:51:02;;;;;;;10.23;3.03;;;6.20;54.10;;;;;;4891850;28;114771;-81
2024/01/25 10:53:34;;;;;;;9.18;3.40;;;6.20;54.20;;;;;;4871036;28;114622;-81
2024/01/25 10:56:02;;;;;;;9.75;2.67;;;6.30;54.10;;;;;;4869830;28;114986;-82
2024/01/25 10:58:35;;;;;;;13.95;3.92;;;6.20;54.30;;;;;;4874031;28;114761;-81
2024/01/25 11:01:11;;;;;;;10.32;2.80;;;6.30;54.30;;;;;;4858065;28;114514;-80
2024/01/25 11:03:45;;;;;;;11.68;2.88;;;6.30;53.90;;;;;;4885845;28;115047;-81
2024/01/25 11:06:13;;;;;;;11.95;2.72;;;6.30;54.00;;;;;;4868926;28;115583;-81
2024/01/25 11:08:41;;;;;;;9.30;3.13;;;6.30;54.10;;;;;;4866921;28;115403;-81
2024/01/25 11:11:13;;;;;;;10.40;2.83;;;6.30;53.90;;;;;;4882380;28;114465;-81
2024/01/25 11:13:44;;;;;;;;;;;6.30;53.90;;;;;;4868550;28;114714;-81
2024/01/25 11:16:16;;;;;;;9.57;2.25;;;6.30;54.60;;;;;;4865277;28;115498;-81
2024/01/25 11:18:51;;;;;;;9.70;3.25;;;6.30;54.10;;;;;;4865944;28;114765;-80
2024/01/25 11:21:45;;;;;;;7.75;1.95;;;6.30;53.60;;;;;;4879831;28;114716;-80
2024/01/25 11:24:26;;;;;;;7.47;2.67;;;6.30;53.10;;;;;;4868356;28;114426;-81
2024/01/25 11:26:57;;;;;;;7.75;2.05;;;6.30;53.20;;;;;;4848558;28;115136;-82
2024/01/25 11:29:24;;;;;;;10.73;1.92;;;6.30;53.10;;;;;;4867499;28;114872;-82
2024/01/25 11:31:52;;;;;;;10.50;2.08;;;6.30;53.20;;;;;;4864458;28;114709;-81
2024/01/25 11:34:23;;;;;;;10.43;2.10;;;6.30;53.10;;;;;;4865006;28;114661;-80
2024/01/25 11:36:51;;;;;;;9.82;2.17;;;6.30;52.90;;;;;;4871054;28;115852;-81
2024/01/25 11:39:19;;;;;;;11.32;2.30;;;6.30;52.90;;;;;;4836138;28;118421;-81
2024/01/25 11:41:47;;;;;;;7.78;2.10;;;6.40;53.00;;;;;;4850148;28;114501;-80
2024/01/25 11:44:14;;;;;;;10.48;2.40;;;6.30;53.10;;;;;;4867371;28;115646;-81
2024/01/25 11:46:42;;;;;;;9.38;2.55;;;6.40;52.90;;;;;;4843877;28;116393;-81
2024/01/25 11:49:10;;;;;;;9.93;2.95;;;6.40;53.00;;;;;;4838464;28;118445;-81
2024/01/25 11:51:38;;;;;;;9.90;2.25;;;6.40;52.80;;;;;;4876361;28;114600;-81
2024/01/25 11:54:06;;;;;;;9.20;2.65;;;6.40;52.90;;;;;;4853724;28;114937;-82
2024/01/25 11:56:40;;;;;;;11.68;2.95;;;6.40;53.00;;;;;;4870076;28;115168;-80
2024/01/25 11:59:09;;;;;;;7.40;2.55;;;6.40;53.00;;;;;;4869849;28;114689;-81
2024/01/25 12:01:36;;;;;;;9.35;2.10;;;6.40;53.20;;;;;;4871805;28;114293;-81
2024/01/25 12:04:04;;;;;;;9.20;2.40;;;6.40;52.70;;;;;;4847204;29;114592;-80
2024/01/25 12:06:32;;;;;;;8.38;2.10;;;6.30;52.80;;;;;;4820457;29;115531;-82
2024/01/25 12:09:10;;;;;;;13.00;2.58;;;6.30;53.00;;;;;;4851514;29;115233;-82
2024/01/25 12:11:40;;;;;;;11.18;2.47;;;6.30;53.50;;;;;;4851551;28;115351;-81
2024/01/25 12:14:09;;;;;;;12.90;2.42;;;6.20;54.00;;;;;;4872571;28;114692;-81
2024/01/25 12:16:47;;;;;;;7.32;2.10;;;6.20;54.20;;;;;;4853513;28;118639;-83
2024/01/25 12:19:20;;;;;;;8.23;2.40;;;6.20;54.40;;;;;;4835644;28;116866;-82
2024/01/25 12:21:48;;;;;;;10.55;2.30;;;6.10;54.60;;;;;;4864756;28;114758;-80
2024/01/25 12:24:15;;;;;;;10.77;2.85;;;6.10;54.60;;;;;;4867952;28;114773;-81
2024/01/25 12:26:46;;;;;;;8.77;2.30;;;6.10;54.70;;;;;;4870466;28;115211;-81
2024/01/25 12:29:17;;;;;;;9.50;2.10;;;6.10;54.80;;;;;;4850714;28;115584;-81
2024/01/25 12:31:45;;;;;;;12.80;2.90;;;6.10;54.80;;;;;;4856359;28;114484;-79
2024/01/25 12:34:15;;;;;;;9.13;2.38;;;6.10;54.80;;;;;;4872486;28;114295;-81
2024/01/25 12:36:43;;;;;;;11.85;3.00;;;6.20;54.80;;;;;;4870379;28;115183;-81
2024/01/25 12:39:13;;;;;;;10.80;3.42;;;6.20;54.90;;;;;;4855238;28;115626;-81
2024/01/25 12:41:46;;;;;;;12.07;2.50;;;6.20;54.90;;;;;;4858983;28;114123;-82
2024/01/25 12:44:14;;;;;;;10.82;3.17;;;6.20;55.00;;;;;;4840306;29;114479;-81
2024/01/25 12:46:41;;;;;;;11.85;3.10;;;6.20;55.00;;;;;;4850617;29;115034;-80
2024/01/25 12:49:09;;;;;;;8.65;2.58;;;6.20;55.00;;;;;;4836411;29;118005;-82